Flight Track Log - Related Links

Times and Time Zones

All times are in EDT time to prevent confusion due to time zone crossing. See the AAY855 flight status page for this flight to view local times or setup timezone preferences in your user account.

Time Position Orientation Groundspeed Altitude Reporting Facility
EDT Latitude Longitude Course Direction KTS MPH feet Rate Location/Type
Sat 05:59:55 PM 41.6931 -86.4478 131° Southeast 220 253 4,400  Level Chicago Center
Sat 06:05:00 PM 41.1759 -85.4913 131° Southeast  Level FlightAware Approximate
Sat 06:05:27 PM 41.2461 -86.3387 172° South 393 452 17,300  Level FlightAware ADS-B
Sat 06:06:51 PM 41.0823 -86.3042 171° South 406 467 20,300 2,431 Climbing FlightAware ADS-B
Sat 06:08:00 PM 40.9489 -86.2759 171° South 392 451 23,500 2,288 Climbing FlightAware ADS-B
Sat 06:08:49 PM 40.8595 -86.2575 171° South 409 471 24,800 1,286 Climbing FlightAware ADS-B
Sat 06:09:24 PM 40.8054 -86.2464 171° South 425 489 25,300 1,114 Climbing FlightAware ADS-B
Sat 06:09:59 PM 40.7250 -86.2296 171° South 429 494 26,100 1,273 Climbing FlightAware ADS-B
Sat 06:10:30 PM 40.6685 -86.2161 166° South 441 507 26,700 1,333 Climbing FlightAware ADS-B
Sat 06:11:11 PM 40.5842 -86.1797 161° South 453 521 27,700 1,348 Climbing FlightAware ADS-B
Sat 06:11:59 PM 40.4986 -86.1418 161° South 457 526 28,700 1,290 Climbing FlightAware ADS-B
Sat 06:12:44 PM 40.4067 -86.1013 162° South 460 529 29,700 1,200 Climbing FlightAware ADS-B
Sat 06:13:14 PM 40.3516 -86.0773 162° South 464 534 30,200 900 Climbing FlightAware ADS-B
Sat 06:13:44 PM 40.2749 -86.0440 162° South 469 540 30,600 960 Climbing FlightAware ADS-B
Sat 06:14:29 PM 40.1818 -86.0025 158° South 476 548 31,400 1,187 Climbing FlightAware ADS-B
Sat 06:15:15 PM 40.0912 -85.9426 152° Southeast 479 551 32,400 1,263 Climbing FlightAware ADS-B
Sat 06:15:45 PM 40.0352 -85.9045 153° Southeast 479 551 33,000 1,300 Climbing FlightAware ADS-B
Sat 06:16:15 PM 39.9725 -85.8619 153° Southeast 474 545 33,700 1,279 Climbing FlightAware ADS-B
Sat 06:16:46 PM 39.9137 -85.8221 154° Southeast 471 542 34,300 1,091 Climbing FlightAware ADS-B
Sat 06:16:59 PM 39.8868 -85.8085 165° South 460 529 34,500 818 Climbing FlightAware ADS-B
Sat 06:17:30 PM 39.8229 -85.7954 173° South 451 519 34,900 492 Climbing FlightAware ADS-B
Sat 06:18:00 PM 39.7672 -85.7864 173° South 450 518 35,000 100 Climbing FlightAware ADS-B
Sat 06:18:30 PM 39.6984 -85.7747 173° South 452 520 35,000  Level FlightAware ADS-B
Sat 06:19:10 PM 39.6289 -85.7627 172° South 452 520 35,000  Level FlightAware ADS-B
Sat 06:19:45 PM 39.5684 -85.7522 173° South 451 519 35,000  Level FlightAware ADS-B
Sat 06:20:30 PM 39.4492 -85.7320 173° South 454 522 35,000  Level FlightAware ADS-B
Sat 06:21:10 PM 39.4199 -85.7271 173° South 454 522 35,000  Level FlightAware ADS-B
Sat 06:22:10 PM 39.2551 -85.6990 173° South 452 520 35,000 148 Level FlightAware ADS-B
Sat 06:23:12 PM 39.1323 -85.6780 173° South 456 525 35,300 730 Climbing FlightAware ADS-B
Sat 06:24:05 PM 39.0108 -85.6577 173° South 447 514 36,400 884 Climbing FlightAware ADS-B (KCVG)
Sat 06:24:47 PM 38.9221 -85.6432 173° South 453 521 36,700 409 Climbing FlightAware ADS-B (KCVG)
Sat 06:25:33 PM 38.8454 -85.6302 172° South 454 522 37,000 202 Climbing FlightAware ADS-B (KCVG)
Sat 06:26:16 PM 38.7368 -85.6118 173° South 452 520 37,000  Level FlightAware ADS-B
Sat 06:27:06 PM 38.6346 -85.5947 173° South 449 517 37,000  Level FlightAware ADS-B (KCVG)
Sat 06:27:38 PM 38.5676 -85.5837 173° South 452 520 37,000  Level FlightAware ADS-B (KCVG)
Sat 06:28:43 PM 38.4330 -85.5615 173° South 453 521 37,000  Level FlightAware ADS-B
Sat 06:29:17 PM 38.3627 -85.5499 173° South 449 517 37,000  Level FlightAware ADS-B (EPWR / WRO)
Sat 06:29:56 PM 38.2871 -85.5372 173° South 451 519 37,000  Level FlightAware ADS-B
Sat 06:30:31 PM 38.2110 -85.5245 173° South 451 519 37,000  Level FlightAware ADS-B (EPWR / WRO)
Sat 06:31:02 PM 38.1470 -85.5139 173° South 450 518 37,000  Level FlightAware ADS-B
Sat 06:31:44 PM 38.0616 -85.4998 173° South 452 520 37,000  Level FlightAware ADS-B (EPWR / WRO)
Sat 06:32:28 PM 37.9689 -85.4847 173° South 454 522 37,000  Level FlightAware ADS-B (EPWR / WRO)
Sat 06:33:04 PM 37.9023 -85.4738 173° South 456 525 37,000  Level FlightAware ADS-B (EPWR / WRO)
Sat 06:33:35 PM 37.8290 -85.4618 173° South 454 522 37,000  Level FlightAware ADS-B (EPWR / WRO)
Sat 06:34:18 PM 37.7388 -85.4471 173° South 454 522 37,000  Level FlightAware ADS-B (EPWR / WRO)
Sat 06:35:03 PM 37.6463 -85.4321 173° South 451 519 37,000  Level FlightAware ADS-B (EPWR / WRO)
Sat 06:35:45 PM 37.5573 -85.4176 173° South 451 519 37,000  Level FlightAware ADS-B (EPWR / WRO)
Sat 06:36:15 PM 37.4967 -85.4077 173° South 452 520 37,000  Level FlightAware ADS-B (EPWR / WRO)
Sat 06:36:51 PM 37.4219 -85.3956 173° South 450 518 37,000  Level FlightAware ADS-B (EPWR / WRO)
Sat 06:37:21 PM 37.3606 -85.3856 173° South 453 521 37,000  Level FlightAware ADS-B
Sat 06:38:08 PM 37.2621 -85.3697 173° South 456 525 37,000  Level FlightAware ADS-B (EPWR / WRO)
Sat 06:38:38 PM 37.1970 -85.3592 173° South 456 525 37,000  Level FlightAware ADS-B (EPWR / WRO)
Sat 06:39:21 PM 37.1087 -85.3449 173° South 454 522 37,000  Level FlightAware ADS-B
Sat 06:40:34 PM 36.9552 -85.3206 173° South 461 531 37,000  Level FlightAware ADS-B
Sat 06:41:47 PM 36.8015 -85.2957 173° South 448 516 37,000  Level FlightAware ADS-B
Sat 06:42:28 PM 36.7187 -85.2828 173° South 449 517 37,000  Level FlightAware ADS-B (EPWR / WRO)
Sat 06:43:09 PM 36.6838 -85.2772 173° South 445 512 37,000  Level FlightAware ADS-B (EPWR / WRO)
Sat 06:43:55 PM 36.6838 -85.2772 173° South 442 509 37,000  Level FlightAware ADS-B (EPWR / WRO)
Sat 06:45:40 PM 36.3257 -85.2209 173° South 451 519 37,000  Level FlightAware ADS-B
Sat 06:46:46 PM 36.1875 -85.1993 173° South 452 520 37,000  Level FlightAware ADS-B
Sat 06:47:39 PM 36.1376 -85.1915 173° South 457 526 37,000  Level FlightAware ADS-B
Sat 06:48:39 PM 36.1376 -85.1915 173° South 461 531 37,000  Level FlightAware ADS-B
Sat 06:49:59 PM 35.7902 -85.1371 173° South 459 528 37,000  Level FlightAware ADS-B (KMDQ)
Sat 06:50:42 PM 35.7325 -85.1282 173° South 457 526 37,000  Level FlightAware ADS-B (KMDQ)
Sat 06:51:22 PM 35.6145 -85.1099 173° South 456 525 37,000  Level FlightAware ADS-B (KMDQ)
Sat 06:52:00 PM 35.5350 -85.0978 173° South 456 525 37,000  Level FlightAware ADS-B (KMDQ)
Sat 06:52:31 PM 35.4696 -85.0876 173° South 456 525 37,000  Level FlightAware ADS-B (KMDQ)
Sat 06:53:02 PM 35.4696 -85.0876 173° South 457 526 37,000  Level FlightAware ADS-B (KMDQ)
Sat 06:55:01 PM 35.1503 -85.0389 173° South 457 526 37,000  Level FlightAware ADS-B (KMDQ)
Sat 06:55:42 PM 35.0679 -85.0262 173° South 456 525 37,000  Level FlightAware ADS-B (KMDQ)
Sat 06:56:19 PM 34.9920 -85.0148 173° South 454 522 37,000  Level FlightAware ADS-B (KMDQ)
Sat 06:56:54 PM 34.8669 -84.9958 173° South 455 524 37,000 85 Level FlightAware ADS-B (KDZJ)
Sat 06:57:30 PM 34.8425 -84.9921 173° South 456 525 37,100 395 Climbing FlightAware ADS-B (KMDQ)
Sat 06:58:10 PM 34.8425 -84.9921 173° South 456 525 37,500 623 Climbing FlightAware ADS-B (KMDQ)
Sat 06:58:47 PM 34.7105 -84.9720 173° South 456 525 37,900 500 Climbing FlightAware ADS-B (KMDQ)
Sat 06:59:22 PM 34.7105 -84.9720 173° South 456 525 38,100 391 Climbing FlightAware ADS-B (KMDQ)
Sat 07:00:19 PM 34.5632 -84.9499 173° South 456 525 38,500 478 Climbing FlightAware ADS-B (KMDQ)
Sat 07:01:15 PM 34.3208 -84.9135 173° South 456 525 39,000 259 Climbing FlightAware ADS-B (KDZJ)
Sat 07:02:15 PM 34.1947 -84.8948 173° South 451 519 39,000  Level FlightAware ADS-B (KDZJ)
Sat 07:02:55 PM 34.1107 -84.8823 173° South 452 520 39,000  Level FlightAware ADS-B (KDZJ)
Sat 07:03:35 PM 34.0250 -84.8695 173° South 453 521 39,000  Level FlightAware ADS-B (KDZJ)
Sat 07:04:15 PM 33.9422 -84.8572 173° South 454 522 39,000  Level FlightAware ADS-B (KDZJ)
Sat 07:04:55 PM 33.8554 -84.8443 173° South 454 522 39,000  Level FlightAware ADS-B (KDZJ)
Sat 07:05:35 PM 33.7715 -84.8317 173° South 453 521 39,000  Level FlightAware ADS-B (KDZJ)
Sat 07:06:17 PM 33.6826 -84.8187 173° South 450 518 39,000  Level FlightAware ADS-B (KDZJ)
Sat 07:07:46 PM 33.5456 -84.8014 173° South 462 532 39,000  Level Atlanta Center
Sat 07:08:46 PM 33.4206 -84.7831 173° South 462 532 39,000  Level Atlanta Center
Sat 07:09:46 PM 33.2953 -84.7669 174° South 457 526 39,000  Level Atlanta Center
Sat 07:10:46 PM 33.1681 -84.7511 174° South 457 526 39,000  Level Atlanta Center
Sat 07:11:46 PM 33.0597 -84.7328 172° South 457 526 39,000  Level Atlanta Center
Sat 07:12:46 PM 32.9344 -84.7144 173° South 457 526 39,000  Level Atlanta Center
Sat 07:13:46 PM 32.8136 -84.6989 174° South 457 526 39,000  Level Atlanta Center
Sat 07:14:46 PM 32.6925 -84.6781 172° South 452 520 39,000  Level Atlanta Center
Sat 07:15:46 PM 32.5694 -84.6575 172° South 447 514 39,000 50 Level Atlanta Center
Sat 07:16:46 PM 32.4444 -84.6419 174° South 447 514 39,100  Climbing Atlanta Center
Sat 07:22:13 PM 31.7724 -84.5432 174° South 39,000 -16 Descending FlightAware ADS-B (KONZ)
Sat 07:22:50 PM 31.6940 -84.5322 173° South 437 503 39,000  Level FlightAware ADS-B (KONZ)
Sat 07:25:39 PM 31.3507 -84.4591 162° South 467 537 39,000 29 Level FlightAware ADS-B (KONZ)
Sat 07:26:16 PM 31.2746 -84.4305 162° South 465 535 39,100 68 Climbing FlightAware ADS-B (KONZ)
Sat 07:27:07 PM 31.1708 -84.3918 162° South 462 532 39,100 -73 Level FlightAware ADS-B (KONZ)
Sat 07:27:38 PM 31.1083 -84.3683 162° South 459 528 39,000 -61 Descending FlightAware ADS-B (KONZ)
Sat 07:28:46 PM 30.9700 -84.3166 162° South 455 524 39,000  Level FlightAware ADS-B (KONZ)
Sat 07:29:37 PM 30.8741 -84.2809 162° South 457 526 39,000  Level FlightAware ADS-B (KONZ)
Sat 07:30:34 PM 30.7568 -84.2376 162° South 462 532 39,000  Level FlightAware ADS-B (KONZ)
Sat 07:31:05 PM 30.6902 -84.2131 163° South 465 535 39,000  Level FlightAware ADS-B (KONZ)
Sat 07:31:36 PM 30.6262 -84.1896 162° South 470 541 39,000  Level FlightAware ADS-B (KONZ)
Sat 07:32:07 PM 30.5619 -84.1659 162° South 472 543 39,000 86 Level FlightAware ADS-B (KONZ)
Sat 07:32:46 PM 30.4974 -84.1421 162° South 473 544 39,100 67 Climbing FlightAware ADS-B (KONZ)
Sat 07:33:37 PM 30.3810 -84.0993 162° South 471 542 39,100 -56 Level FlightAware ADS-B (KONZ)
Sat 07:34:33 PM 30.2559 -84.0534 163° South 471 542 39,000 -67 Descending FlightAware ADS-B (KONZ)
Sat 07:35:06 PM 30.1888 -84.0288 162° South 470 541 39,000  Level FlightAware ADS-B (KONZ)
Sat 07:35:36 PM 30.1242 -84.0052 163° South 470 541 39,000  Level FlightAware ADS-B (KONZ)
Sat 07:36:16 PM 30.0605 -83.9821 163° South 468 539 39,000 -608 Level FlightAware ADS-B (KONZ)
Sat 07:36:55 PM 29.9744 -83.9507 163° South 470 541 38,200 -1,690 Descending FlightAware ADS-B (KONZ)
Sat 07:37:27 PM 29.8966 -83.9224 162° South 467 537 37,000 -2,189 Descending FlightAware ADS-B (KONZ)
Sat 07:38:09 PM 29.8103 -83.8875 162° South 462 532 35,500 -2,143 Descending FlightAware ADS-B (KONZ)
Sat 07:38:37 PM 29.7565 -83.8534 150° Southeast 479 551 34,500 -1,257 Descending FlightAware ADS-B (KONZ)
Sat 07:39:54 PM 29.6100 -83.7622 150° Southeast 474 545 33,300 -1,051 Descending Jacksonville Center
Sat 07:40:54 PM 29.4936 -83.6847 150° Southeast 485 558 32,100 -1,650 Descending Jacksonville Center
Sat 07:41:54 PM 29.3772 -83.6122 152° Southeast 485 558 30,000 -2,100 Descending Jacksonville Center
Sat 07:42:54 PM 29.2650 -83.5400 151° Southeast 473 544 27,900 -2,050 Descending Jacksonville Center
Sat 07:43:54 PM 29.1586 -83.4703 150° Southeast 462 532 25,900 -1,900 Descending Jacksonville Center
Sat 07:44:54 PM 29.0483 -83.4008 151° Southeast 449 517 24,100 -1,850 Descending Jacksonville Center
Sat 07:45:54 PM 28.9442 -83.3339 151° Southeast 444 511 22,200 -1,800 Descending Jacksonville Center
Sat 07:46:54 PM 28.8444 -83.2719 151° Southeast 427 491 20,500 -1,700 Descending Jacksonville Center
Sat 07:47:54 PM 28.7464 -83.2100 151° Southeast 416 479 18,800 -1,700 Descending Jacksonville Center
Sat 07:48:54 PM 28.6547 -83.1528 151° Southeast 392 451 17,100 -1,642 Descending Jacksonville Center
Sat 07:49:29 PM 28.6000 -83.1167 150° Southeast 369 425 16,200 -1,768 Descending Tampa TRACON
Sat 07:50:29 PM 28.5167 -83.0667 152° Southeast 367 422 14,300 -1,722 Descending Tampa TRACON
Sat 07:51:24 PM 28.4333 -83.0167 152° Southeast 364 419 12,900 -1,587 Descending Tampa TRACON
Sat 07:52:30 PM 28.3333 -82.9667 156° South 333 383 11,100 -1,400 Descending Tampa TRACON
Sat 07:53:24 PM 28.2667 -82.9333 156° South 320 368 10,100 -1,311 Descending Tampa TRACON
Sat 07:54:29 PM 28.1667 -82.9167 172° South 293 337 8,500 -1,381 Descending Tampa TRACON
Sat 07:55:30 PM 28.1000 -82.8833 156° South 278 320 7,200 -1,339 Descending Tampa TRACON
Sat 07:56:30 PM 28.0333 -82.8667 168° South 266 306 5,800 -1,450 Descending Tampa TRACON
Sat 07:57:30 PM 27.9667 -82.8500 168° South 251 289 4,300 -1,500 Descending Tampa TRACON
Sat 07:58:30 PM 27.9000 -82.8167 156° South 247 284 2,800 -1,000 Descending Tampa TRACON
Sat 07:59:24 PM 27.8500 -82.7667 139° Southeast 219 252 2,400 -737 Descending Tampa TRACON
Sat 08:00:24 PM 27.8333 -82.7167 111° Southeast 178 205 1,400 -750 Descending Tampa TRACON
Sat 08:01:24 PM 27.8500 -82.6833 61° Northeast 154 177 900 -600 Descending Tampa TRACON
Sat 08:02:24 PM 27.9000 -82.6833 360° North 127 146 200 -700 Descending Tampa TRACON

Login

Don't have an account? Register now (free) for customized features, flight alerts, and more!